Погода Тотторина неделю

Тоттори, Япония

15 - 21 июня
  • 15июня
    Сегодня
    +21°
    +33°
    Облачно с прояснениями
    ВремяПогодаТемператураВлажностьДавлениеВетер, м/сВероятность осадков
    00:00Облачно с прояснениями+24°C62 %752 мм3.7 м/с2 %
    03:00Облачно с прояснениями+24°C57 %751 мм3.8 м/с2 %
    06:00Ясно и безоблачно+22°C59 %751 мм3.8 м/с2 %
    09:00Облачно с прояснениями+29°C48 %751 мм4.0 м/с2 %
    12:00Облачно с прояснениями+32°C45 %750 мм5.3 м/с2 %
    15:00Облачно с прояснениями+33°C50 %749 мм5.5 м/с2 %
    18:00Облачно с прояснениями+30°C65 %748 мм4.6 м/с6 %
    21:00Ясно и безоблачно+26°C77 %749 мм2.6 м/с5 %
  • 16июня
    Воскресенье
    +18°
    +29°
    Практически безоблачно
    ВремяПогодаТемператураВлажностьДавлениеВетер, м/сВероятность осадков
    00:00Ясно и безоблачно+24°C83 %749 мм2.7 м/с3 %
    03:00Ясно и безоблачно+23°C85 %749 мм2.3 м/с3 %
    06:00Практически безоблачно+22°C86 %750 мм2.7 м/с6 %
    09:00Ясно и безоблачно+28°C65 %749 мм2.5 м/с7 %
    12:00Практически безоблачно+29°C71 %750 мм4.9 м/с41 %
    15:00Практически безоблачно+28°C72 %750 мм5.3 м/с44 %
    18:00Облачно с прояснениями+26°C80 %751 мм4.4 м/с26 %
    21:00Облачно с прояснениями+23°C91 %753 мм1.7 м/с7 %
  • 17июня
    Понедельник
    +20°
    +32°
    Облачно с прояснениями
    ВремяПогодаТемператураВлажностьДавлениеВетер, м/сВероятность осадков
    00:00Облачно с прояснениями+21°C90 %753 мм2.6 м/с2 %
    03:00Облачно с прояснениями+19°C81 %754 мм2.5 м/с2 %
    06:00Облачно с прояснениями+19°C69 %754 мм3.2 м/с2 %
    09:00Облачно с прояснениями+28°C45 %754 мм3.3 м/с2 %
    12:00Облачно с прояснениями+31°C38 %754 мм4.8 м/с2 %
    15:00Облачно с прояснениями+30°C49 %753 мм3.8 м/с3 %
    18:00Облачно с прояснениями+28°C46 %753 мм3.9 м/с2 %
    21:00Облачно с прояснениями+23°C66 %753 мм2.7 м/с2 %
  • 18июня
    Вторник
    +18°
    +29°
    Ясно и безоблачно
    ВремяПогодаТемператураВлажностьДавлениеВетер, м/сВероятность осадков
    00:00Облачно с прояснениями+22°C70 %752 мм3.3 м/с3 %
    03:00Облачно с прояснениями+22°C70 %751 мм3.0 м/с11 %
    06:00Ясно и безоблачно+21°C83 %750 мм3.0 м/с22 %
    09:00Облачно с прояснениями+25°C65 %751 мм3.2 м/с19 %
    12:00Небольшая облачность+26°C57 %751 мм3.7 м/с22 %
    15:00Ясно и безоблачно+29°C57 %751 мм3.5 м/с13 %
    18:00Ясно и безоблачно+27°C69 %751 мм3.0 м/с15 %
    21:00Ясно и безоблачно+23°C80 %752 мм1.7 м/с11 %
  • 19июня
    Среда
    +19°
    +31°
    Ясно и безоблачно
    ВремяПогодаТемператураВлажностьДавлениеВетер, м/сВероятность осадков
    00:00Ясно и безоблачно+20°C72 %753 мм2.4 м/с6 %
    03:00Ясно и безоблачно+19°C69 %753 мм2.1 м/с6 %
    06:00Ясно и безоблачно+19°C69 %754 мм2.6 м/с8 %
    09:00Ясно и безоблачно+27°C58 %754 мм3.0 м/с6 %
    12:00Ясно и безоблачно+30°C66 %755 мм4.8 м/с4 %
    15:00Ясно и безоблачно+30°C63 %754 мм4.5 м/с6 %
    18:00Ясно и безоблачно+28°C68 %754 мм3.2 м/с4 %
    21:00Ясно и безоблачно+24°C85 %755 мм1.7 м/с2 %
Мы используем cookies
Соглашаюсь